Time,TemperatureF,DewpointF,PressureIn,WindDirection,WindDirectionDegrees,WindSpeedMPH,WindSpeedGustMPH,Humidity,HourlyPrecipIn,Conditions,Clouds,dailyrainin,SolarRadiationWatts/m^2,SoftwareType,DateUTC
2013-02-11 00:02:00,1.0,-4.0,-100.00,ESE,117,1.0,2.0,78,0.00,,,0.00,0.000000,,2013-02-11 05:02:00,
2013-02-11 00:10:00,-1.0,-6.0,-100.00,South,186,0.0,2.0,78,0.00,,,0.00,0.000000,,2013-02-11 05:10:00,
2013-02-11 00:42:00,-1.0,-6.0,-100.00,South,186,0.0,2.0,78,0.00,,,0.00,0.000000,,2013-02-11 05:42:00,
2013-02-11 00:53:00,-1.0,-6.0,-100.00,South,186,0.0,2.0,78,0.00,,,0.00,0.000000,,2013-02-11 05:53:00,
2013-02-11 01:02:00,-1.0,-6.0,-100.00,South,186,0.0,2.0,78,0.00,,,0.00,0.000000,,2013-02-11 06:02:00,
2013-02-11 01:10:00,-2.0,-8.0,-100.00,SSW,208,1.0,3.0,76,0.00,,,0.00,0.000000,,2013-02-11 06:10:00,
2013-02-11 01:42:00,-2.0,-8.0,-100.00,SSW,208,1.0,3.0,76,0.00,,,0.00,0.000000,,2013-02-11 06:42:00,
2013-02-11 01:52:00,-2.0,-8.0,-100.00,SSW,208,1.0,3.0,76,0.00,,,0.00,0.000000,,2013-02-11 06:52:00,
2013-02-11 02:02:00,-2.0,-8.0,-100.00,SSW,208,1.0,3.0,76,0.00,,,0.00,0.000000,,2013-02-11 07:02:00,
2013-02-11 02:10:00,-4.0,-10.0,-100.00,East,88,1.0,3.0,75,0.00,,,0.00,0.000000,,2013-02-11 07:10:00,
2013-02-11 02:42:00,-4.0,-10.0,-100.00,East,88,1.0,3.0,75,0.00,,,0.00,0.000000,,2013-02-11 07:42:00,
2013-02-11 02:52:00,-4.0,-10.0,-100.00,East,88,1.0,3.0,75,0.00,,,0.00,0.000000,,2013-02-11 07:52:00,
2013-02-11 03:01:00,-4.0,-10.0,-100.00,East,88,1.0,3.0,75,0.00,,,0.00,0.000000,,2013-02-11 08:01:00,
2013-02-11 03:10:00,-4.0,-10.0,-100.00,East,83,2.0,2.0,75,0.00,,,0.00,0.000000,,2013-02-11 08:10:00,
2013-02-11 03:42:00,-4.0,-10.0,-100.00,East,83,2.0,2.0,75,0.00,,,0.00,0.000000,,2013-02-11 08:42:00,
2013-02-11 03:52:00,-4.0,-10.0,-100.00,East,83,2.0,2.0,75,0.00,,,0.00,0.000000,,2013-02-11 08:52:00,
2013-02-11 04:02:00,-4.0,-10.0,-100.00,East,83,2.0,2.0,75,0.00,,,0.00,0.000000,,2013-02-11 09:02:00,
2013-02-11 04:10:00,-2.0,-8.0,-100.00,WNW,294,2.0,2.0,75,0.00,,,0.00,0.000000,,2013-02-11 09:10:00,
2013-02-11 04:32:00,-2.0,-8.0,-100.00,WNW,294,2.0,2.0,75,0.00,,,0.00,0.000000,,2013-02-11 09:32:00,
2013-02-11 04:42:00,-2.0,-8.0,-100.00,WNW,294,2.0,2.0,75,0.00,,,0.00,0.000000,,2013-02-11 09:42:00,
2013-02-11 04:52:00,-2.0,-8.0,-100.00,WNW,294,2.0,2.0,75,0.00,,,0.00,0.000000,,2013-02-11 09:52:00,
2013-02-11 05:02:00,-2.0,-8.0,-100.00,WNW,294,2.0,2.0,75,0.00,,,0.00,0.000000,,2013-02-11 10:02:00,
2013-02-11 05:10:00,0.0,-6.0,-100.00,WNW,282,1.0,2.0,76,0.00,,,0.00,0.000000,,2013-02-11 10:10:00,
2013-02-11 05:42:00,0.0,-6.0,-100.00,WNW,282,1.0,2.0,76,0.00,,,0.00,0.000000,,2013-02-11 10:42:00,
2013-02-11 05:52:00,0.0,-6.0,-100.00,WNW,282,1.0,2.0,76,0.00,,,0.00,0.000000,,2013-02-11 10:52:00,
2013-02-11 06:02:00,0.0,-6.0,-100.00,WNW,282,1.0,2.0,76,0.00,,,0.00,0.000000,,2013-02-11 11:02:00,
2013-02-11 06:10:00,3.0,-2.0,-100.00,South,188,1.0,2.0,78,0.00,,,0.00,0.000000,,2013-02-11 11:10:00,
2013-02-11 06:42:00,3.0,-2.0,-100.00,South,188,1.0,2.0,78,0.00,,,0.00,0.000000,,2013-02-11 11:42:00,
2013-02-11 06:52:00,3.0,-2.0,-100.00,South,188,1.0,2.0,78,0.00,,,0.00,0.000000,,2013-02-11 11:52:00,
2013-02-11 07:03:00,3.0,-2.0,-100.00,South,188,1.0,2.0,78,0.00,,,0.00,0.000000,,2013-02-11 12:03:00,
2013-02-11 07:10:00,5.0,0.0,-100.00,West,272,1.0,2.0,78,0.00,,,-99.99,0.000000,,2013-02-11 12:10:00,
2013-02-11 07:32:00,5.0,0.0,-100.00,West,272,1.0,2.0,78,0.00,,,-99.99,0.000000,,2013-02-11 12:32:00,
2013-02-11 07:42:00,5.0,0.0,-100.00,West,272,1.0,2.0,78,0.00,,,-99.99,0.000000,,2013-02-11 12:42:00,
2013-02-11 07:52:00,5.0,0.0,-100.00,West,272,1.0,2.0,78,0.00,,,-99.99,0.000000,,2013-02-11 12:52:00,
2013-02-11 08:02:00,5.0,0.0,-100.00,West,272,1.0,2.0,78,0.00,,,-99.99,0.000000,,2013-02-11 13:02:00,
2013-02-11 08:10:00,9.0,4.0,-100.00,West,262,2.0,3.0,78,0.00,,,-99.99,4.000000,,2013-02-11 13:10:00,
2013-02-11 08:42:00,9.0,4.0,-100.00,West,262,2.0,3.0,78,0.00,,,-99.99,4.000000,,2013-02-11 13:42:00,
2013-02-11 08:52:00,9.0,4.0,-100.00,West,262,2.0,3.0,78,0.00,,,-99.99,4.000000,,2013-02-11 13:52:00,
2013-02-11 09:02:00,9.0,4.0,-100.00,West,262,2.0,3.0,78,0.00,,,-99.99,4.000000,,2013-02-11 14:02:00,
2013-02-11 09:10:00,13.0,7.0,-100.00,SW,236,2.0,4.0,75,0.00,,,-99.99,8.000000,,2013-02-11 14:10:00,
2013-02-11 09:42:00,13.0,7.0,-100.00,SW,236,2.0,4.0,75,0.00,,,-99.99,8.000000,,2013-02-11 14:42:00,
2013-02-11 09:53:00,13.0,7.0,-100.00,SW,236,2.0,4.0,75,0.00,,,-99.99,8.000000,,2013-02-11 14:53:00,
2013-02-11 10:02:00,13.0,7.0,-100.00,SW,236,2.0,4.0,75,0.00,,,-99.99,8.000000,,2013-02-11 15:02:00,
2013-02-11 10:10:00,15.0,8.0,-100.00,West,266,2.0,6.0,74,0.00,,,0.00,6.000000,,2013-02-11 15:10:00,
2013-02-11 10:42:00,15.0,8.0,-100.00,West,266,2.0,6.0,74,0.00,,,0.00,6.000000,,2013-02-11 15:42:00,
2013-02-11 10:52:00,15.0,8.0,-100.00,West,266,2.0,6.0,74,0.00,,,0.00,6.000000,,2013-02-11 15:52:00,
2013-02-11 11:02:00,15.0,8.0,-100.00,West,266,2.0,6.0,74,0.00,,,0.00,6.000000,,2013-02-11 16:02:00,
2013-02-11 11:10:00,17.0,12.0,-100.00,WNW,284,2.0,4.0,80,-99.99,,,0.00,8.000000,,2013-02-11 16:10:00,
2013-02-11 11:32:00,17.0,12.0,-100.00,WNW,284,2.0,4.0,80,-99.99,,,0.00,8.000000,,2013-02-11 16:32:00,
2013-02-11 11:42:00,17.0,12.0,-100.00,WNW,284,2.0,4.0,80,-99.99,,,0.00,8.000000,,2013-02-11 16:42:00,
2013-02-11 11:53:00,17.0,12.0,-100.00,WNW,284,2.0,4.0,80,-99.99,,,0.00,8.000000,,2013-02-11 16:53:00,
2013-02-11 12:02:00,17.0,12.0,-100.00,WNW,284,2.0,4.0,80,-99.99,,,0.00,8.000000,,2013-02-11 17:02:00,
2013-02-11 12:10:00,20.0,15.0,-100.00,North,7,1.0,2.0,82,0.00,,,0.00,10.000000,,2013-02-11 17:10:00,
2013-02-11 12:42:00,20.0,15.0,-100.00,North,7,1.0,2.0,82,0.00,,,0.00,10.000000,,2013-02-11 17:42:00,
2013-02-11 12:53:00,20.0,15.0,-100.00,North,7,1.0,2.0,82,0.00,,,0.00,10.000000,,2013-02-11 17:53:00,
2013-02-11 13:02:00,20.0,15.0,-100.00,North,7,1.0,2.0,82,0.00,,,0.00,10.000000,,2013-02-11 18:02:00,
2013-02-11 13:10:00,22.0,18.0,-100.00,ENE,61,1.0,2.0,85,0.00,,,0.00,8.000000,,2013-02-11 18:10:00,
2013-02-11 13:42:00,22.0,18.0,-100.00,ENE,61,1.0,2.0,85,0.00,,,0.00,8.000000,,2013-02-11 18:42:00,
2013-02-11 13:54:00,22.0,18.0,-100.00,ENE,61,1.0,2.0,85,0.00,,,0.00,8.000000,,2013-02-11 18:54:00,
2013-02-11 14:02:00,22.0,18.0,-100.00,ENE,61,1.0,2.0,85,0.00,,,0.00,8.000000,,2013-02-11 19:02:00,
2013-02-11 15:42:00,26.0,23.0,-100.00,SE,130,1.0,3.0,87,-99.99,,,0.00,8.000000,,2013-02-11 20:42:00,
2013-02-11 15:52:00,26.0,23.0,-100.00,SE,130,1.0,3.0,87,-99.99,,,0.00,8.000000,,2013-02-11 20:52:00,
2013-02-11 16:32:00,27.0,24.0,-100.00,WNW,295,2.0,3.0,88,-99.99,,,0.00,4.000000,,2013-02-11 21:32:00,
2013-02-11 17:32:00,26.0,23.0,-100.00,SSE,148,1.0,3.0,88,-99.99,,,0.00,0.000000,,2013-02-11 22:32:00,
2013-02-11 18:32:00,26.0,23.0,-100.00,West,272,1.0,3.0,90,0.00,,,0.00,0.000000,,2013-02-11 23:32:00,
2013-02-11 19:32:00,26.0,23.0,-100.00,East,91,2.0,2.0,90,-99.99,,,0.00,0.000000,,2013-02-12 00:32:00,
2013-02-11 20:42:00,26.0,24.0,-100.00,South,174,1.0,2.0,91,-99.99,,,-99.99,0.000000,,2013-02-12 01:42:00,
2013-02-11 20:52:00,26.0,24.0,-100.00,South,174,1.0,2.0,91,-99.99,,,-99.99,0.000000,,2013-02-12 01:52:00,
2013-02-11 21:10:00,27.0,25.0,-100.00,South,174,1.0,4.0,91,-99.99,,,0.00,0.000000,,2013-02-12 02:10:00,
2013-02-11 21:32:00,27.0,25.0,-100.00,South,174,1.0,4.0,91,-99.99,,,0.00,0.000000,,2013-02-12 02:32:00,
2013-02-11 21:42:00,27.0,25.0,-100.00,South,174,1.0,4.0,91,-99.99,,,0.00,0.000000,,2013-02-12 02:42:00,
2013-02-11 21:53:00,27.0,25.0,-100.00,South,174,1.0,4.0,91,-99.99,,,0.00,0.000000,,2013-02-12 02:53:00,
2013-02-11 22:02:00,27.0,25.0,-100.00,South,174,1.0,4.0,91,-99.99,,,0.00,0.000000,,2013-02-12 03:02:00,
2013-02-11 22:10:00,27.0,25.0,-100.00,North,1,0.0,2.0,92,0.00,,,0.00,0.000000,,2013-02-12 03:10:00,
2013-02-11 22:32:00,27.0,25.0,-100.00,North,1,0.0,2.0,92,0.00,,,0.00,0.000000,,2013-02-12 03:32:00,
2013-02-11 22:42:00,27.0,25.0,-100.00,North,1,0.0,2.0,92,0.00,,,0.00,0.000000,,2013-02-12 03:42:00,
2013-02-11 22:52:00,27.0,25.0,-100.00,North,1,0.0,2.0,92,0.00,,,0.00,0.000000,,2013-02-12 03:52:00,
2013-02-11 23:01:00,27.0,25.0,-100.00,North,1,0.0,2.0,92,0.00,,,0.00,0.000000,,2013-02-12 04:01:00,
2013-02-11 23:10:00,28.0,28.0,-100.00,SSW,197,1.0,4.0,99,0.00,,,-99.99,0.000000,,2013-02-12 04:10:00,
2013-02-11 23:32:00,28.0,28.0,-100.00,SSW,197,1.0,4.0,99,0.00,,,-99.99,0.000000,,2013-02-12 04:32:00,
2013-02-11 23:42:00,28.0,28.0,-100.00,SSW,197,1.0,4.0,99,0.00,,,-99.99,0.000000,,2013-02-12 04:42:00,
2013-02-11 23:52:00,28.0,28.0,-100.00,SSW,197,1.0,4.0,99,0.00,,,-99.99,0.000000,,2013-02-12 04:52:00,